Lahaina, HI

10:12 PM HST on February 08, 2016 (GMT -1000)
West Mahi Pua | | Change Station
CLOSE
Current Station
Personal Weather Station
Location: Lahaina, HI
Elevation: 256 ft
Nearby Weather Stations

Elev 256 ft 20.92 °N, 156.68 °W | Updated 12 minutes ago

Scattered Clouds
Scattered Clouds
65.8 °F
Feels Like 65.8 °F
N
0.0
Wind Variable Wind from South

Today
High -- | Low -- °F
--% Chance of Precip.
Yesterday
High -- | Low -- °F
Precip. -- in
Pressure 30.04 in
Visibility 10.0 miles
Clouds Scattered Clouds 4500 ft
Dew Point 54 °F
Humidity 67%
Rainfall 0.37 in
Snow Depth Not available.
7:00 AM 6:21 PM
New Moon, 1% visible
METAR PHOG 090754Z 00000KT 10SM SCT045 17/12 A3003 RMK AO2 SLP173 T01670122 $
Pressure 30.04 in
Visibility 10.0 miles
Clouds Scattered Clouds 4500 ft
Dew Point 54 °F
Humidity 67%
Rainfall 0.37 in
Snow Depth Not available.
7:00 AM 6:21 PM
New Moon, 1% visible
METAR PHOG 090754Z 00000KT 10SM SCT045 17/12 A3003 RMK AO2 SLP173 T01670122 $

10-Day Weather Forecast

Almanac

Astronomy

Feb. 08, 2016 Rise Set
Actual Time
Civil Twilight
Nautical Twilight
Astronomical Twilight
Moon
Length of Visible Light
Length of Day
Tomorrow will be .
, % of the Moon is Illuminated

Today's Extremes

State Highs State Lows

Community

WunderPhotos

Upload Photos

1,891,571 photos uploaded!

WunderBlog® & News

Nearby

Air Quality

  Air Quality AQ Index Pollutant
Not available.

Snow Depth

Station Depth Elevation

Earthquake Activity

City Distance Mag. Time & Date
Minimum magnitude displayed is 2.5.

Coastal Water Temperatures

Place Temperature

Stations

Nearby Weather Stations

Station Location Temp. Windchill Dew Point Humidity Wind Precip. Elev Updated Type
                   

Watches & Warnings

There are currently no watches in effect.